sensor_id;sensor_type;location;lat;lon;timestamp;P1;durP1;ratioP1;P2;durP2;ratioP2
24383;SDS011;12504;52.870;8.798;2022-12-18T00:01:01;45.17;;;23.33;;
24383;SDS011;12504;52.870;8.798;2022-12-18T00:03:34;55.72;;;25.73;;
24383;SDS011;12504;52.870;8.798;2022-12-18T00:06:01;49.97;;;23.17;;
24383;SDS011;12504;52.870;8.798;2022-12-18T00:08:27;50.53;;;23.77;;
24383;SDS011;12504;52.870;8.798;2022-12-18T00:10:53;61.80;;;23.07;;
24383;SDS011;12504;52.870;8.798;2022-12-18T00:13:19;48.37;;;22.63;;
24383;SDS011;12504;52.870;8.798;2022-12-18T00:15:45;54.43;;;23.67;;
24383;SDS011;12504;52.870;8.798;2022-12-18T00:18:11;45.53;;;21.33;;
24383;SDS011;12504;52.870;8.798;2022-12-18T00:20:37;54.57;;;24.00;;
24383;SDS011;12504;52.870;8.798;2022-12-18T00:23:04;47.83;;;22.57;;
24383;SDS011;12504;52.870;8.798;2022-12-18T00:25:34;46.07;;;21.20;;
24383;SDS011;12504;52.870;8.798;2022-12-18T00:28:02;46.58;;;19.85;;
24383;SDS011;12504;52.870;8.798;2022-12-18T00:30:29;47.27;;;21.20;;
24383;SDS011;12504;52.870;8.798;2022-12-18T00:32:55;50.83;;;22.43;;
24383;SDS011;12504;52.870;8.798;2022-12-18T00:35:24;44.30;;;22.00;;
24383;SDS011;12504;52.870;8.798;2022-12-18T00:37:51;46.10;;;22.53;;
24383;SDS011;12504;52.870;8.798;2022-12-18T00:40:17;44.70;;;20.60;;
24383;SDS011;12504;52.870;8.798;2022-12-18T00:42:42;48.97;;;21.77;;
24383;SDS011;12504;52.870;8.798;2022-12-18T00:45:27;44.07;;;19.20;;
24383;SDS011;12504;52.870;8.798;2022-12-18T00:47:55;41.27;;;21.03;;
24383;SDS011;12504;52.870;8.798;2022-12-18T00:50:22;42.37;;;20.67;;
24383;SDS011;12504;52.870;8.798;2022-12-18T00:52:49;51.40;;;21.30;;
24383;SDS011;12504;52.870;8.798;2022-12-18T00:55:15;42.50;;;22.20;;
24383;SDS011;12504;52.870;8.798;2022-12-18T00:57:42;43.60;;;20.73;;
24383;SDS011;12504;52.870;8.798;2022-12-18T01:00:08;39.83;;;20.23;;
24383;SDS011;12504;52.870;8.798;2022-12-18T01:02:37;59.83;;;21.13;;
24383;SDS011;12504;52.870;8.798;2022-12-18T01:05:04;43.10;;;20.97;;
24383;SDS011;12504;52.870;8.798;2022-12-18T01:07:30;43.50;;;19.77;;
24383;SDS011;12504;52.870;8.798;2022-12-18T01:09:55;44.60;;;19.10;;
24383;SDS011;12504;52.870;8.798;2022-12-18T01:12:21;42.90;;;20.30;;
24383;SDS011;12504;52.870;8.798;2022-12-18T01:14:49;46.77;;;19.50;;
24383;SDS011;12504;52.870;8.798;2022-12-18T01:17:15;51.83;;;19.50;;
24383;SDS011;12504;52.870;8.798;2022-12-18T01:19:41;45.07;;;19.07;;
24383;SDS011;12504;52.870;8.798;2022-12-18T01:22:07;40.70;;;17.53;;
24383;SDS011;12504;52.870;8.798;2022-12-18T01:24:33;35.47;;;18.10;;
24383;SDS011;12504;52.870;8.798;2022-12-18T01:26:58;35.80;;;16.43;;
24383;SDS011;12504;52.870;8.798;2022-12-18T01:29:24;38.70;;;18.53;;
24383;SDS011;12504;52.870;8.798;2022-12-18T01:31:50;50.57;;;18.57;;
24383;SDS011;12504;52.870;8.798;2022-12-18T01:34:16;38.53;;;18.90;;
24383;SDS011;12504;52.870;8.798;2022-12-18T01:36:42;45.53;;;17.90;;
24383;SDS011;12504;52.870;8.798;2022-12-18T01:39:10;46.67;;;22.13;;
24383;SDS011;12504;52.870;8.798;2022-12-18T01:41:40;47.37;;;18.77;;
24383;SDS011;12504;52.870;8.798;2022-12-18T01:50:23;33.37;;;17.23;;
24383;SDS011;12504;52.870;8.798;2022-12-18T01:52:51;36.27;;;18.47;;
24383;SDS011;12504;52.870;8.798;2022-12-18T01:57:47;43.90;;;16.87;;
24383;SDS011;12504;52.870;8.798;2022-12-18T02:00:17;36.23;;;16.57;;
24383;SDS011;12504;52.870;8.798;2022-12-18T02:02:47;45.10;;;16.50;;
24383;SDS011;12504;52.870;8.798;2022-12-18T02:05:15;39.40;;;18.30;;
24383;SDS011;12504;52.870;8.798;2022-12-18T02:07:48;46.00;;;18.50;;
24383;SDS011;12504;52.870;8.798;2022-12-18T02:10:24;29.77;;;16.00;;
24383;SDS011;12504;52.870;8.798;2022-12-18T02:18:27;34.20;;;16.97;;
24383;SDS011;12504;52.870;8.798;2022-12-18T02:23:45;36.10;;;15.03;;
24383;SDS011;12504;52.870;8.798;2022-12-18T02:26:28;40.87;;;17.03;;
24383;SDS011;12504;52.870;8.798;2022-12-18T02:29:08;35.77;;;15.57;;
24383;SDS011;12504;52.870;8.798;2022-12-18T02:31:39;39.40;;;17.53;;
24383;SDS011;12504;52.870;8.798;2022-12-18T02:34:21;37.03;;;18.07;;
24383;SDS011;12504;52.870;8.798;2022-12-18T02:36:49;35.20;;;16.20;;
24383;SDS011;12504;52.870;8.798;2022-12-18T02:39:16;33.33;;;15.10;;
24383;SDS011;12504;52.870;8.798;2022-12-18T02:41:55;36.30;;;14.87;;
24383;SDS011;12504;52.870;8.798;2022-12-18T02:44:23;32.27;;;15.67;;
24383;SDS011;12504;52.870;8.798;2022-12-18T02:46:50;33.63;;;14.90;;
24383;SDS011;12504;52.870;8.798;2022-12-18T02:52:01;35.50;;;15.20;;
24383;SDS011;12504;52.870;8.798;2022-12-18T02:57:05;31.03;;;13.80;;
24383;SDS011;12504;52.870;8.798;2022-12-18T02:59:49;42.80;;;16.10;;
24383;SDS011;12504;52.870;8.798;2022-12-18T03:02:41;24.50;;;12.88;;
24383;SDS011;12504;52.870;8.798;2022-12-18T03:05:22;34.73;;;16.13;;
24383;SDS011;12504;52.870;8.798;2022-12-18T03:07:58;32.47;;;13.83;;
24383;SDS011;12504;52.870;8.798;2022-12-18T03:10:34;31.83;;;15.00;;
24383;SDS011;12504;52.870;8.798;2022-12-18T03:13:12;35.33;;;15.30;;
24383;SDS011;12504;52.870;8.798;2022-12-18T03:16:07;31.10;;;13.90;;
24383;SDS011;12504;52.870;8.798;2022-12-18T03:21:34;31.17;;;12.57;;
24383;SDS011;12504;52.870;8.798;2022-12-18T03:24:06;28.37;;;12.37;;
24383;SDS011;12504;52.870;8.798;2022-12-18T03:26:34;30.63;;;12.80;;
24383;SDS011;12504;52.870;8.798;2022-12-18T03:29:07;29.03;;;13.50;;
24383;SDS011;12504;52.870;8.798;2022-12-18T03:31:37;30.70;;;12.60;;
24383;SDS011;12504;52.870;8.798;2022-12-18T03:34:12;27.75;;;12.25;;
24383;SDS011;12504;52.870;8.798;2022-12-18T03:36:44;40.00;;;12.87;;
24383;SDS011;12504;52.870;8.798;2022-12-18T03:39:11;30.03;;;12.13;;
24383;SDS011;12504;52.870;8.798;2022-12-18T03:41:43;28.53;;;13.73;;
24383;SDS011;12504;52.870;8.798;2022-12-18T03:50:11;24.83;;;10.37;;
24383;SDS011;12504;52.870;8.798;2022-12-18T03:55:40;24.30;;;11.47;;
24383;SDS011;12504;52.870;8.798;2022-12-18T03:58:07;28.60;;;12.13;;
24383;SDS011;12504;52.870;8.798;2022-12-18T04:00:48;30.17;;;12.67;;
24383;SDS011;12504;52.870;8.798;2022-12-18T04:03:16;28.53;;;13.37;;
24383;SDS011;12504;52.870;8.798;2022-12-18T04:05:46;28.17;;;14.35;;
24383;SDS011;12504;52.870;8.798;2022-12-18T04:08:18;27.63;;;12.57;;
24383;SDS011;12504;52.870;8.798;2022-12-18T04:10:52;30.67;;;16.33;;
24383;SDS011;12504;52.870;8.798;2022-12-18T04:13:22;29.70;;;13.47;;
24383;SDS011;12504;52.870;8.798;2022-12-18T04:16:02;30.33;;;13.90;;
24383;SDS011;12504;52.870;8.798;2022-12-18T04:18:28;29.33;;;14.00;;
24383;SDS011;12504;52.870;8.798;2022-12-18T04:20:55;35.70;;;13.10;;
24383;SDS011;12504;52.870;8.798;2022-12-18T04:23:21;25.40;;;11.80;;
24383;SDS011;12504;52.870;8.798;2022-12-18T04:25:47;30.63;;;12.70;;
24383;SDS011;12504;52.870;8.798;2022-12-18T04:28:20;18.87;;;10.97;;
24383;SDS011;12504;52.870;8.798;2022-12-18T04:30:46;27.80;;;11.83;;
24383;SDS011;12504;52.870;8.798;2022-12-18T04:33:12;25.53;;;11.80;;
24383;SDS011;12504;52.870;8.798;2022-12-18T04:35:42;19.30;;;9.57;;
24383;SDS011;12504;52.870;8.798;2022-12-18T04:38:09;27.27;;;10.60;;
24383;SDS011;12504;52.870;8.798;2022-12-18T04:40:36;25.97;;;11.33;;
24383;SDS011;12504;52.870;8.798;2022-12-18T04:43:10;16.73;;;10.07;;
24383;SDS011;12504;52.870;8.798;2022-12-18T04:45:36;23.80;;;10.40;;
24383;SDS011;12504;52.870;8.798;2022-12-18T04:48:02;29.17;;;10.57;;
24383;SDS011;12504;52.870;8.798;2022-12-18T04:50:29;24.57;;;10.10;;
24383;SDS011;12504;52.870;8.798;2022-12-18T04:52:55;24.63;;;11.67;;
24383;SDS011;12504;52.870;8.798;2022-12-18T04:55:24;27.43;;;10.97;;
24383;SDS011;12504;52.870;8.798;2022-12-18T04:57:50;16.70;;;9.90;;
24383;SDS011;12504;52.870;8.798;2022-12-18T05:00:15;21.07;;;10.50;;
24383;SDS011;12504;52.870;8.798;2022-12-18T05:02:41;22.33;;;11.47;;
24383;SDS011;12504;52.870;8.798;2022-12-18T05:05:07;31.17;;;11.17;;
24383;SDS011;12504;52.870;8.798;2022-12-18T05:07:33;52.40;;;15.07;;
24383;SDS011;12504;52.870;8.798;2022-12-18T05:09:59;22.37;;;11.33;;
24383;SDS011;12504;52.870;8.798;2022-12-18T05:12:24;26.30;;;13.37;;
24383;SDS011;12504;52.870;8.798;2022-12-18T05:14:50;23.47;;;9.83;;
24383;SDS011;12504;52.870;8.798;2022-12-18T05:17:16;25.33;;;10.67;;
24383;SDS011;12504;52.870;8.798;2022-12-18T05:19:42;16.57;;;8.00;;
24383;SDS011;12504;52.870;8.798;2022-12-18T05:22:08;25.93;;;10.27;;
24383;SDS011;12504;52.870;8.798;2022-12-18T05:24:34;25.03;;;9.50;;
24383;SDS011;12504;52.870;8.798;2022-12-18T05:27:00;29.17;;;10.83;;
24383;SDS011;12504;52.870;8.798;2022-12-18T05:29:27;22.80;;;11.60;;
24383;SDS011;12504;52.870;8.798;2022-12-18T05:31:52;18.43;;;9.90;;
24383;SDS011;12504;52.870;8.798;2022-12-18T05:34:18;20.00;;;9.43;;
24383;SDS011;12504;52.870;8.798;2022-12-18T05:36:44;24.27;;;9.80;;
24383;SDS011;12504;52.870;8.798;2022-12-18T05:39:10;22.27;;;9.80;;
24383;SDS011;12504;52.870;8.798;2022-12-18T05:41:35;22.93;;;8.83;;
24383;SDS011;12504;52.870;8.798;2022-12-18T05:44:01;21.23;;;8.57;;
24383;SDS011;12504;52.870;8.798;2022-12-18T05:46:27;19.03;;;8.87;;
24383;SDS011;12504;52.870;8.798;2022-12-18T05:48:53;22.43;;;8.97;;
24383;SDS011;12504;52.870;8.798;2022-12-18T05:51:19;22.07;;;9.23;;
24383;SDS011;12504;52.870;8.798;2022-12-18T05:53:47;21.30;;;10.03;;
24383;SDS011;12504;52.870;8.798;2022-12-18T05:56:16;22.27;;;10.30;;
24383;SDS011;12504;52.870;8.798;2022-12-18T05:58:44;18.80;;;9.98;;
24383;SDS011;12504;52.870;8.798;2022-12-18T06:01:14;22.10;;;10.13;;
24383;SDS011;12504;52.870;8.798;2022-12-18T06:03:45;36.90;;;10.50;;
24383;SDS011;12504;52.870;8.798;2022-12-18T06:08:45;27.70;;;9.77;;
24383;SDS011;12504;52.870;8.798;2022-12-18T06:11:11;27.93;;;11.70;;
24383;SDS011;12504;52.870;8.798;2022-12-18T06:13:37;22.23;;;8.93;;
24383;SDS011;12504;52.870;8.798;2022-12-18T06:16:04;19.03;;;9.43;;
24383;SDS011;12504;52.870;8.798;2022-12-18T06:18:30;21.13;;;8.77;;
24383;SDS011;12504;52.870;8.798;2022-12-18T06:20:56;22.20;;;10.73;;
24383;SDS011;12504;52.870;8.798;2022-12-18T06:23:23;24.17;;;11.53;;
24383;SDS011;12504;52.870;8.798;2022-12-18T06:25:49;25.57;;;9.10;;
24383;SDS011;12504;52.870;8.798;2022-12-18T06:28:15;19.27;;;9.77;;
24383;SDS011;12504;52.870;8.798;2022-12-18T06:30:43;21.30;;;8.30;;
24383;SDS011;12504;52.870;8.798;2022-12-18T06:33:09;24.47;;;9.80;;
24383;SDS011;12504;52.870;8.798;2022-12-18T06:35:35;16.97;;;8.33;;
24383;SDS011;12504;52.870;8.798;2022-12-18T06:38:01;18.63;;;9.53;;
24383;SDS011;12504;52.870;8.798;2022-12-18T06:40:27;16.63;;;7.93;;
24383;SDS011;12504;52.870;8.798;2022-12-18T06:42:53;22.67;;;10.53;;
24383;SDS011;12504;52.870;8.798;2022-12-18T06:45:18;19.80;;;9.50;;
24383;SDS011;12504;52.870;8.798;2022-12-18T06:47:44;18.03;;;8.87;;
24383;SDS011;12504;52.870;8.798;2022-12-18T06:50:10;27.87;;;9.23;;
24383;SDS011;12504;52.870;8.798;2022-12-18T06:52:36;21.87;;;9.70;;
24383;SDS011;12504;52.870;8.798;2022-12-18T06:55:04;24.60;;;8.53;;
24383;SDS011;12504;52.870;8.798;2022-12-18T06:57:30;24.37;;;9.80;;
24383;SDS011;12504;52.870;8.798;2022-12-18T06:59:56;29.80;;;10.57;;
24383;SDS011;12504;52.870;8.798;2022-12-18T07:02:22;25.50;;;10.20;;
24383;SDS011;12504;52.870;8.798;2022-12-18T07:04:47;21.43;;;10.77;;
24383;SDS011;12504;52.870;8.798;2022-12-18T07:07:13;27.67;;;12.87;;
24383;SDS011;12504;52.870;8.798;2022-12-18T07:09:39;22.93;;;9.80;;
24383;SDS011;12504;52.870;8.798;2022-12-18T07:12:05;22.97;;;8.67;;
24383;SDS011;12504;52.870;8.798;2022-12-18T07:14:33;26.70;;;9.67;;
24383;SDS011;12504;52.870;8.798;2022-12-18T07:16:59;17.90;;;8.43;;
24383;SDS011;12504;52.870;8.798;2022-12-18T07:19:25;22.47;;;9.23;;
24383;SDS011;12504;52.870;8.798;2022-12-18T07:21:51;21.77;;;9.37;;
24383;SDS011;12504;52.870;8.798;2022-12-18T07:24:17;19.93;;;10.13;;
24383;SDS011;12504;52.870;8.798;2022-12-18T07:26:45;25.53;;;10.50;;
24383;SDS011;12504;52.870;8.798;2022-12-18T07:29:11;28.17;;;14.83;;
24383;SDS011;12504;52.870;8.798;2022-12-18T07:31:37;30.80;;;13.87;;
24383;SDS011;12504;52.870;8.798;2022-12-18T07:34:03;25.00;;;11.57;;
24383;SDS011;12504;52.870;8.798;2022-12-18T07:36:29;30.40;;;13.70;;
24383;SDS011;12504;52.870;8.798;2022-12-18T07:38:55;23.83;;;10.50;;
24383;SDS011;12504;52.870;8.798;2022-12-18T07:41:22;21.97;;;8.00;;
24383;SDS011;12504;52.870;8.798;2022-12-18T07:43:48;22.40;;;8.90;;
24383;SDS011;12504;52.870;8.798;2022-12-18T07:46:14;15.23;;;7.90;;
24383;SDS011;12504;52.870;8.798;2022-12-18T07:48:41;18.40;;;8.83;;
24383;SDS011;12504;52.870;8.798;2022-12-18T07:51:08;24.50;;;11.90;;
24383;SDS011;12504;52.870;8.798;2022-12-18T07:53:35;18.73;;;8.73;;
24383;SDS011;12504;52.870;8.798;2022-12-18T07:56:03;22.83;;;9.87;;
24383;SDS011;12504;52.870;8.798;2022-12-18T07:58:31;21.52;;;8.80;;
24383;SDS011;12504;52.870;8.798;2022-12-18T08:01:10;26.07;;;11.27;;
24383;SDS011;12504;52.870;8.798;2022-12-18T08:03:38;25.17;;;10.27;;
24383;SDS011;12504;52.870;8.798;2022-12-18T08:06:06;19.47;;;8.70;;
24383;SDS011;12504;52.870;8.798;2022-12-18T08:08:34;18.37;;;9.40;;
24383;SDS011;12504;52.870;8.798;2022-12-18T08:11:00;19.40;;;10.20;;
24383;SDS011;12504;52.870;8.798;2022-12-18T08:13:27;24.37;;;9.80;;
24383;SDS011;12504;52.870;8.798;2022-12-18T08:15:58;22.37;;;10.77;;
24383;SDS011;12504;52.870;8.798;2022-12-18T08:18:28;22.37;;;8.73;;
24383;SDS011;12504;52.870;8.798;2022-12-18T08:20:54;24.47;;;9.97;;
24383;SDS011;12504;52.870;8.798;2022-12-18T08:23:21;24.63;;;10.60;;
24383;SDS011;12504;52.870;8.798;2022-12-18T08:25:47;20.40;;;8.53;;
24383;SDS011;12504;52.870;8.798;2022-12-18T08:28:13;20.23;;;9.67;;
24383;SDS011;12504;52.870;8.798;2022-12-18T08:30:39;20.87;;;8.73;;
24383;SDS011;12504;52.870;8.798;2022-12-18T08:33:06;20.90;;;9.57;;
24383;SDS011;12504;52.870;8.798;2022-12-18T08:38:24;24.23;;;9.50;;
24383;SDS011;12504;52.870;8.798;2022-12-18T08:41:06;22.30;;;9.20;;
24383;SDS011;12504;52.870;8.798;2022-12-18T08:43:39;25.53;;;10.27;;
24383;SDS011;12504;52.870;8.798;2022-12-18T08:46:24;18.07;;;9.03;;
24383;SDS011;12504;52.870;8.798;2022-12-18T08:48:52;24.77;;;10.77;;
24383;SDS011;12504;52.870;8.798;2022-12-18T08:51:19;25.47;;;10.93;;
24383;SDS011;12504;52.870;8.798;2022-12-18T08:53:46;24.93;;;9.87;;
24383;SDS011;12504;52.870;8.798;2022-12-18T08:56:13;33.07;;;10.50;;
24383;SDS011;12504;52.870;8.798;2022-12-18T08:58:40;23.23;;;10.80;;
24383;SDS011;12504;52.870;8.798;2022-12-18T09:01:07;22.93;;;8.90;;
24383;SDS011;12504;52.870;8.798;2022-12-18T09:03:37;21.13;;;9.63;;
24383;SDS011;12504;52.870;8.798;2022-12-18T09:06:05;22.05;;;11.00;;
24383;SDS011;12504;52.870;8.798;2022-12-18T09:08:31;25.47;;;10.47;;
24383;SDS011;12504;52.870;8.798;2022-12-18T09:10:59;24.73;;;10.80;;
24383;SDS011;12504;52.870;8.798;2022-12-18T09:13:25;28.83;;;11.30;;
24383;SDS011;12504;52.870;8.798;2022-12-18T09:15:52;30.43;;;11.87;;
24383;SDS011;12504;52.870;8.798;2022-12-18T09:18:20;18.58;;;9.65;;
24383;SDS011;12504;52.870;8.798;2022-12-18T09:20:50;21.38;;;9.73;;
24383;SDS011;12504;52.870;8.798;2022-12-18T09:23:18;20.58;;;9.32;;
24383;SDS011;12504;52.870;8.798;2022-12-18T09:25:45;20.00;;;9.25;;
24383;SDS011;12504;52.870;8.798;2022-12-18T09:28:12;19.00;;;9.57;;
24383;SDS011;12504;52.870;8.798;2022-12-18T09:30:40;30.02;;;9.77;;
24383;SDS011;12504;52.870;8.798;2022-12-18T09:33:08;20.30;;;9.80;;
24383;SDS011;12504;52.870;8.798;2022-12-18T09:35:37;21.35;;;9.10;;
24383;SDS011;12504;52.870;8.798;2022-12-18T09:38:04;17.63;;;9.35;;
24383;SDS011;12504;52.870;8.798;2022-12-18T09:40:34;32.53;;;13.35;;
24383;SDS011;12504;52.870;8.798;2022-12-18T09:43:06;23.30;;;12.13;;
24383;SDS011;12504;52.870;8.798;2022-12-18T09:46:16;36.70;;;15.10;;
24383;SDS011;12504;52.870;8.798;2022-12-18T09:48:51;34.78;;;13.93;;
24383;SDS011;12504;52.870;8.798;2022-12-18T09:51:26;21.63;;;11.70;;
24383;SDS011;12504;52.870;8.798;2022-12-18T09:54:00;30.85;;;14.35;;
24383;SDS011;12504;52.870;8.798;2022-12-18T09:59:00;25.40;;;9.82;;
24383;SDS011;12504;52.870;8.798;2022-12-18T10:01:27;19.20;;;8.88;;
24383;SDS011;12504;52.870;8.798;2022-12-18T10:03:54;15.95;;;8.98;;
24383;SDS011;12504;52.870;8.798;2022-12-18T10:11:53;18.15;;;9.13;;
24383;SDS011;12504;52.870;8.798;2022-12-18T10:20:16;21.27;;;9.35;;
24383;SDS011;12504;52.870;8.798;2022-12-18T10:28:00;18.17;;;9.60;;
24383;SDS011;12504;52.870;8.798;2022-12-18T10:30:35;18.40;;;9.73;;
24383;SDS011;12504;52.870;8.798;2022-12-18T10:33:01;25.73;;;11.43;;
24383;SDS011;12504;52.870;8.798;2022-12-18T10:35:27;22.60;;;10.02;;
24383;SDS011;12504;52.870;8.798;2022-12-18T10:38:36;21.25;;;10.57;;
24383;SDS011;12504;52.870;8.798;2022-12-18T10:40:49;22.80;;;9.60;;
24383;SDS011;12504;52.870;8.798;2022-12-18T10:48:47;23.00;;;11.07;;
24383;SDS011;12504;52.870;8.798;2022-12-18T10:53:59;20.67;;;11.07;;
24383;SDS011;12504;52.870;8.798;2022-12-18T10:56:31;18.27;;;10.45;;
24383;SDS011;12504;52.870;8.798;2022-12-18T10:59:03;22.75;;;11.80;;
24383;SDS011;12504;52.870;8.798;2022-12-18T11:01:50;19.20;;;9.88;;
24383;SDS011;12504;52.870;8.798;2022-12-18T11:04:18;21.90;;;10.07;;
24383;SDS011;12504;52.870;8.798;2022-12-18T11:09:30;19.63;;;10.40;;
24383;SDS011;12504;52.870;8.798;2022-12-18T11:12:02;20.52;;;11.10;;
24383;SDS011;12504;52.870;8.798;2022-12-18T11:14:47;19.17;;;9.13;;
24383;SDS011;12504;52.870;8.798;2022-12-18T11:17:19;25.13;;;10.82;;
24383;SDS011;12504;52.870;8.798;2022-12-18T11:20:07;23.02;;;10.90;;
24383;SDS011;12504;52.870;8.798;2022-12-18T11:22:43;19.50;;;9.50;;
24383;SDS011;12504;52.870;8.798;2022-12-18T11:25:20;16.77;;;8.65;;
24383;SDS011;12504;52.870;8.798;2022-12-18T11:27:54;21.40;;;10.98;;
24383;SDS011;12504;52.870;8.798;2022-12-18T11:30:25;26.50;;;10.48;;
24383;SDS011;12504;52.870;8.798;2022-12-18T11:35:37;16.60;;;9.25;;
24383;SDS011;12504;52.870;8.798;2022-12-18T11:38:28;11.38;;;7.78;;
24383;SDS011;12504;52.870;8.798;2022-12-18T11:40:56;21.10;;;10.00;;
24383;SDS011;12504;52.870;8.798;2022-12-18T11:43:38;17.77;;;7.97;;
24383;SDS011;12504;52.870;8.798;2022-12-18T11:46:39;18.20;;;8.00;;
24383;SDS011;12504;52.870;8.798;2022-12-18T11:49:11;14.85;;;7.20;;
24383;SDS011;12504;52.870;8.798;2022-12-18T11:54:12;15.73;;;7.85;;
24383;SDS011;12504;52.870;8.798;2022-12-18T11:56:48;14.30;;;9.30;;
24383;SDS011;12504;52.870;8.798;2022-12-18T12:13:20;20.52;;;8.27;;
24383;SDS011;12504;52.870;8.798;2022-12-18T12:16:21;13.57;;;6.97;;
24383;SDS011;12504;52.870;8.798;2022-12-18T12:19:07;18.63;;;8.48;;
24383;SDS011;12504;52.870;8.798;2022-12-18T12:21:39;17.20;;;9.55;;
24383;SDS011;12504;52.870;8.798;2022-12-18T12:27:02;16.10;;;8.95;;
24383;SDS011;12504;52.870;8.798;2022-12-18T12:33:02;16.58;;;9.50;;
24383;SDS011;12504;52.870;8.798;2022-12-18T12:38:41;21.70;;;9.20;;
24383;SDS011;12504;52.870;8.798;2022-12-18T12:41:12;17.35;;;8.82;;
24383;SDS011;12504;52.870;8.798;2022-12-18T12:44:00;19.90;;;9.63;;
24383;SDS011;12504;52.870;8.798;2022-12-18T12:46:31;22.58;;;10.32;;
24383;SDS011;12504;52.870;8.798;2022-12-18T12:49:02;22.13;;;11.15;;
24383;SDS011;12504;52.870;8.798;2022-12-18T12:51:32;24.63;;;10.52;;
24383;SDS011;12504;52.870;8.798;2022-12-18T12:54:01;19.05;;;10.27;;
24383;SDS011;12504;52.870;8.798;2022-12-18T12:56:36;20.35;;;11.38;;
24383;SDS011;12504;52.870;8.798;2022-12-18T13:04:57;22.83;;;9.82;;
24383;SDS011;12504;52.870;8.798;2022-12-18T13:07:41;19.17;;;10.55;;
24383;SDS011;12504;52.870;8.798;2022-12-18T13:10:32;17.42;;;9.85;;
24383;SDS011;12504;52.870;8.798;2022-12-18T13:13:00;15.77;;;9.02;;
24383;SDS011;12504;52.870;8.798;2022-12-18T13:15:47;18.58;;;9.70;;
24383;SDS011;12504;52.870;8.798;2022-12-18T13:18:19;21.77;;;10.73;;
24383;SDS011;12504;52.870;8.798;2022-12-18T13:20:53;19.17;;;10.00;;
24383;SDS011;12504;52.870;8.798;2022-12-18T13:23:47;19.75;;;10.50;;
24383;SDS011;12504;52.870;8.798;2022-12-18T13:39:10;23.55;;;10.77;;
24383;SDS011;12504;52.870;8.798;2022-12-18T13:41:47;22.77;;;10.23;;
24383;SDS011;12504;52.870;8.798;2022-12-18T13:44:33;19.10;;;9.07;;
24383;SDS011;12504;52.870;8.798;2022-12-18T13:47:01;19.85;;;10.55;;
24383;SDS011;12504;52.870;8.798;2022-12-18T13:49:39;17.55;;;10.18;;
24383;SDS011;12504;52.870;8.798;2022-12-18T13:52:15;19.63;;;10.73;;
24383;SDS011;12504;52.870;8.798;2022-12-18T13:54:50;24.15;;;10.65;;
24383;SDS011;12504;52.870;8.798;2022-12-18T13:57:32;15.90;;;8.95;;
24383;SDS011;12504;52.870;8.798;2022-12-18T14:00:16;15.13;;;8.50;;
24383;SDS011;12504;52.870;8.798;2022-12-18T14:02:51;16.10;;;7.50;;
24383;SDS011;12504;52.870;8.798;2022-12-18T14:05:34;18.83;;;8.90;;
24383;SDS011;12504;52.870;8.798;2022-12-18T14:08:05;19.00;;;9.43;;
24383;SDS011;12504;52.870;8.798;2022-12-18T14:10:40;16.60;;;8.07;;
24383;SDS011;12504;52.870;8.798;2022-12-18T14:13:08;15.63;;;7.13;;
24383;SDS011;12504;52.870;8.798;2022-12-18T14:15:38;14.05;;;7.22;;
24383;SDS011;12504;52.870;8.798;2022-12-18T14:20:43;14.30;;;7.88;;
24383;SDS011;12504;52.870;8.798;2022-12-18T14:23:26;13.30;;;7.35;;
24383;SDS011;12504;52.870;8.798;2022-12-18T14:26:03;12.32;;;6.68;;
24383;SDS011;12504;52.870;8.798;2022-12-18T14:28:48;15.75;;;6.75;;
24383;SDS011;12504;52.870;8.798;2022-12-18T14:31:21;14.25;;;6.85;;
24383;SDS011;12504;52.870;8.798;2022-12-18T14:33:48;11.02;;;6.40;;
24383;SDS011;12504;52.870;8.798;2022-12-18T14:36:18;9.70;;;6.35;;
24383;SDS011;12504;52.870;8.798;2022-12-18T14:38:51;13.85;;;7.68;;
24383;SDS011;12504;52.870;8.798;2022-12-18T14:41:21;16.13;;;8.43;;
24383;SDS011;12504;52.870;8.798;2022-12-18T14:43:48;12.55;;;7.10;;
24383;SDS011;12504;52.870;8.798;2022-12-18T14:52:25;13.55;;;7.55;;
24383;SDS011;12504;52.870;8.798;2022-12-18T14:54:54;26.65;;;11.65;;
24383;SDS011;12504;52.870;8.798;2022-12-18T14:57:23;14.32;;;8.27;;
24383;SDS011;12504;52.870;8.798;2022-12-18T14:59:51;13.50;;;8.00;;
24383;SDS011;12504;52.870;8.798;2022-12-18T15:04:45;14.77;;;7.85;;
24383;SDS011;12504;52.870;8.798;2022-12-18T15:09:42;15.43;;;7.65;;
24383;SDS011;12504;52.870;8.798;2022-12-18T15:15:03;15.27;;;7.25;;
24383;SDS011;12504;52.870;8.798;2022-12-18T15:17:30;14.02;;;7.03;;
24383;SDS011;12504;52.870;8.798;2022-12-18T15:20:03;22.60;;;11.35;;
24383;SDS011;12504;52.870;8.798;2022-12-18T15:25:03;20.13;;;10.30;;
24383;SDS011;12504;52.870;8.798;2022-12-18T15:27:47;17.50;;;9.43;;
24383;SDS011;12504;52.870;8.798;2022-12-18T15:32:43;29.08;;;13.07;;
24383;SDS011;12504;52.870;8.798;2022-12-18T15:37:36;20.88;;;11.15;;
24383;SDS011;12504;52.870;8.798;2022-12-18T15:40:02;19.65;;;8.15;;
24383;SDS011;12504;52.870;8.798;2022-12-18T15:42:29;16.48;;;9.15;;
24383;SDS011;12504;52.870;8.798;2022-12-18T15:45:13;10.95;;;6.85;;
24383;SDS011;12504;52.870;8.798;2022-12-18T15:47:40;18.58;;;9.15;;
24383;SDS011;12504;52.870;8.798;2022-12-18T15:50:09;19.40;;;10.55;;
24383;SDS011;12504;52.870;8.798;2022-12-18T15:52:39;14.75;;;9.75;;
24383;SDS011;12504;52.870;8.798;2022-12-18T15:55:14;29.50;;;11.88;;
24383;SDS011;12504;52.870;8.798;2022-12-18T15:58:03;24.27;;;11.70;;
24383;SDS011;12504;52.870;8.798;2022-12-18T16:00:30;17.88;;;10.40;;
24383;SDS011;12504;52.870;8.798;2022-12-18T16:02:57;16.65;;;10.02;;
24383;SDS011;12504;52.870;8.798;2022-12-18T16:05:23;23.33;;;11.98;;
24383;SDS011;12504;52.870;8.798;2022-12-18T16:07:50;20.63;;;12.25;;
24383;SDS011;12504;52.870;8.798;2022-12-18T16:10:16;20.27;;;9.70;;
24383;SDS011;12504;52.870;8.798;2022-12-18T16:12:42;19.50;;;10.57;;
24383;SDS011;12504;52.870;8.798;2022-12-18T16:15:09;15.95;;;10.75;;
24383;SDS011;12504;52.870;8.798;2022-12-18T16:17:38;21.35;;;11.00;;
24383;SDS011;12504;52.870;8.798;2022-12-18T16:20:05;21.55;;;12.23;;
24383;SDS011;12504;52.870;8.798;2022-12-18T16:22:36;14.13;;;9.38;;
24383;SDS011;12504;52.870;8.798;2022-12-18T16:25:02;20.98;;;11.82;;
24383;SDS011;12504;52.870;8.798;2022-12-18T16:27:30;15.48;;;9.55;;
24383;SDS011;12504;52.870;8.798;2022-12-18T16:29:55;20.98;;;11.27;;
24383;SDS011;12504;52.870;8.798;2022-12-18T16:32:21;23.77;;;10.50;;
24383;SDS011;12504;52.870;8.798;2022-12-18T16:34:47;24.85;;;11.48;;
24383;SDS011;12504;52.870;8.798;2022-12-18T16:37:14;23.23;;;11.00;;
24383;SDS011;12504;52.870;8.798;2022-12-18T16:39:41;23.23;;;10.55;;
24383;SDS011;12504;52.870;8.798;2022-12-18T16:42:11;22.05;;;9.70;;
24383;SDS011;12504;52.870;8.798;2022-12-18T16:44:41;19.45;;;11.20;;
24383;SDS011;12504;52.870;8.798;2022-12-18T16:47:07;20.05;;;10.32;;
24383;SDS011;12504;52.870;8.798;2022-12-18T16:49:33;17.92;;;10.63;;
24383;SDS011;12504;52.870;8.798;2022-12-18T16:51:59;16.42;;;8.65;;
24383;SDS011;12504;52.870;8.798;2022-12-18T16:54:26;18.90;;;9.02;;
24383;SDS011;12504;52.870;8.798;2022-12-18T16:56:54;20.55;;;9.98;;
24383;SDS011;12504;52.870;8.798;2022-12-18T16:59:21;19.80;;;9.60;;
24383;SDS011;12504;52.870;8.798;2022-12-18T17:01:46;18.88;;;10.27;;
24383;SDS011;12504;52.870;8.798;2022-12-18T17:04:12;15.20;;;9.75;;